createdAt,value
2023-05-17T00:00:26.312Z,102158.28
2023-05-17T00:02:52.976Z,102137.66
2023-05-17T00:05:19.576Z,102103.69
2023-05-17T00:07:47.468Z,102165.38
2023-05-17T00:10:14.223Z,102094.91
2023-05-17T00:12:40.867Z,102163.56
2023-05-17T00:15:07.786Z,102008.06
2023-05-17T00:17:37.485Z,102153.41
2023-05-17T00:20:05.764Z,102160.56
2023-05-17T00:22:32.470Z,102165.28
2023-05-17T00:24:59.088Z,102153.22
2023-05-17T00:27:25.757Z,102141.69
2023-05-17T00:29:52.356Z,102128.41
2023-05-17T00:32:18.942Z,102099.44
2023-05-17T00:34:45.644Z,102168.94
2023-05-17T00:37:12.404Z,102156.50
2023-05-17T00:39:39.116Z,102149.25
2023-05-17T00:42:06.434Z,102146.09
2023-05-17T00:44:33.103Z,102139.38
2023-05-17T00:47:00.114Z,102130.69
2023-05-17T00:49:27.842Z,102155.28
2023-05-17T00:51:55.207Z,102144.75
2023-05-17T00:54:22.369Z,102140.22
2023-05-17T00:56:49.767Z,102132.47
2023-05-17T00:59:16.468Z,102116.19
2023-05-17T01:01:44.161Z,102118.06
2023-05-17T01:04:11.267Z,102092.75
2023-05-17T01:06:38.105Z,102117.56
2023-05-17T01:09:05.962Z,102123.16
2023-05-17T01:11:48.729Z,102124.88
2023-05-17T01:14:52.428Z,102082.63
2023-05-17T01:17:36.857Z,102129.09
2023-05-17T01:20:21.698Z,102146.81
2023-05-17T01:23:12.404Z,102147.41
2023-05-17T01:26:05.375Z,102123.81
2023-05-17T01:28:33.747Z,102158.00
2023-05-17T01:31:03.252Z,102138.00
2023-05-17T01:33:31.169Z,102147.06
2023-05-17T01:35:57.998Z,102143.31
2023-05-17T01:38:24.582Z,102145.16
2023-05-17T01:41:16.313Z,102152.41
2023-05-17T01:44:02.771Z,102110.06
2023-05-17T01:46:41.281Z,102145.94
2023-05-17T01:49:29.453Z,102125.19
2023-05-17T01:52:17.896Z,102149.72
2023-05-17T01:55:19.749Z,102147.84
2023-05-17T01:57:52.361Z,102149.09
2023-05-17T02:00:19.923Z,102085.97
2023-05-17T02:02:46.702Z,102142.34
2023-05-17T02:05:13.552Z,102149.38
2023-05-17T02:07:40.702Z,102149.91
2023-05-17T02:10:08.291Z,102139.66
2023-05-17T02:12:34.892Z,102136.97
2023-05-17T02:15:01.531Z,102144.75
2023-05-17T02:17:28.760Z,102152.16
2023-05-17T02:19:55.506Z,102115.84
2023-05-17T02:22:22.132Z,102092.09
2023-05-17T02:24:49.177Z,102112.22
2023-05-17T02:27:15.878Z,102160.84
2023-05-17T02:29:43.009Z,102165.81
2023-05-17T02:32:09.628Z,102142.41
2023-05-17T02:34:36.216Z,102151.38
2023-05-17T02:37:02.969Z,102117.06
2023-05-17T02:39:29.596Z,102140.66
2023-05-17T02:41:56.281Z,102134.31
2023-05-17T02:44:22.927Z,102174.19
2023-05-17T02:46:49.639Z,102178.63
2023-05-17T02:49:16.324Z,102171.50
2023-05-17T02:51:42.993Z,102180.00
2023-05-17T02:54:09.664Z,102182.84
2023-05-17T02:56:36.302Z,102111.38
2023-05-17T02:59:03.056Z,102108.00
2023-05-17T03:01:29.734Z,102175.00
2023-05-17T03:03:56.504Z,102073.59
2023-05-17T03:06:23.301Z,102112.66
2023-05-17T03:08:49.959Z,102155.31
2023-05-17T03:11:17.374Z,102184.81
2023-05-17T03:13:44.115Z,102120.25
2023-05-17T03:16:10.889Z,102169.56
2023-05-17T03:18:37.868Z,102162.03
2023-05-17T03:21:04.666Z,102100.06
2023-05-17T03:23:31.282Z,102165.22
2023-05-17T03:25:57.889Z,102129.00
2023-05-17T03:28:24.654Z,102176.34
2023-05-17T03:30:51.882Z,102167.59
2023-05-17T03:33:19.259Z,102173.91
2023-05-17T03:35:48.565Z,102180.94
2023-05-17T03:38:15.251Z,102120.94
2023-05-17T03:40:41.934Z,102172.88
2023-05-17T03:43:08.570Z,102198.72
2023-05-17T03:45:35.212Z,102185.47
2023-05-17T03:48:01.845Z,102183.78
2023-05-17T03:50:28.637Z,102195.97
2023-05-17T03:52:55.260Z,102205.19
2023-05-17T03:55:22.034Z,102194.94
2023-05-17T03:57:48.610Z,102204.38
2023-05-17T04:00:21.373Z,102215.03
2023-05-17T04:02:48.773Z,102212.94
2023-05-17T04:05:15.641Z,102165.84
2023-05-17T04:07:42.326Z,102212.94
2023-05-17T04:10:09.135Z,102227.88
2023-05-17T04:12:35.953Z,102224.63
2023-05-17T04:15:04.112Z,102222.00
2023-05-17T04:17:31.193Z,102220.38
2023-05-17T04:19:58.008Z,102149.97
2023-05-17T04:22:24.658Z,102214.63
2023-05-17T04:24:51.582Z,102210.94
2023-05-17T04:27:18.337Z,102215.28
2023-05-17T04:29:44.992Z,102147.19
2023-05-17T04:32:13.534Z,102164.03
2023-05-17T04:34:40.165Z,102207.78
2023-05-17T04:37:07.159Z,102198.88
2023-05-17T04:39:33.818Z,102181.50
2023-05-17T04:42:00.428Z,102165.97
2023-05-17T04:44:27.397Z,102154.13
2023-05-17T04:46:54.012Z,102156.91
2023-05-17T04:49:20.730Z,102162.75
2023-05-17T04:51:47.417Z,102162.09
2023-05-17T04:54:14.107Z,102172.44
2023-05-17T04:56:40.763Z,102109.66
2023-05-17T04:59:07.398Z,102180.94
2023-05-17T05:01:35.507Z,102115.03
2023-05-17T05:04:07.135Z,102180.66
2023-05-17T05:06:34.983Z,102177.78
2023-05-17T05:09:02.045Z,102189.38
2023-05-17T05:11:28.719Z,102191.38
2023-05-17T05:13:55.543Z,102199.28
2023-05-17T05:16:22.389Z,102196.28
2023-05-17T05:18:49.272Z,102167.19
2023-05-17T05:21:16.029Z,102204.03
2023-05-17T05:23:42.658Z,102039.44
2023-05-17T05:26:09.420Z,102200.81
2023-05-17T05:28:36.077Z,102178.03
2023-05-17T05:31:02.822Z,102175.72
2023-05-17T05:33:29.611Z,102155.06
2023-05-17T05:35:56.450Z,102214.00
2023-05-17T05:38:23.084Z,102213.63
2023-05-17T05:40:49.730Z,102221.50
2023-05-17T05:43:16.504Z,102227.50
2023-05-17T05:45:46.835Z,102216.31
2023-05-17T05:48:14.323Z,102145.72
2023-05-17T05:50:44.503Z,102222.50
2023-05-17T05:53:18.778Z,102226.25
2023-05-17T05:55:47.087Z,102221.03
2023-05-17T05:58:13.697Z,102169.34
2023-05-17T06:00:40.422Z,102223.16
2023-05-17T06:03:07.123Z,102223.56
2023-05-17T06:05:33.943Z,102222.31
2023-05-17T06:08:00.642Z,102224.50
2023-05-17T06:10:27.675Z,102209.66
2023-05-17T06:12:54.543Z,102239.31
2023-05-17T06:15:21.158Z,102245.78
2023-05-17T06:17:48.213Z,102241.91
2023-05-17T06:20:16.562Z,102238.59
2023-05-17T06:22:44.305Z,102091.72
2023-05-17T06:25:12.048Z,102181.84
2023-05-17T06:27:39.895Z,102170.28
2023-05-17T06:30:07.639Z,102237.00
2023-05-17T06:32:35.316Z,102247.16
2023-05-17T06:35:02.424Z,102264.69
2023-05-17T06:37:31.474Z,102242.88
2023-05-17T06:40:14.772Z,102266.44
2023-05-17T06:42:41.988Z,102208.88
2023-05-17T06:45:09.120Z,102268.56
2023-05-17T06:47:36.276Z,102260.69
2023-05-17T06:50:02.931Z,102274.28
2023-05-17T06:52:29.598Z,102263.50
2023-05-17T06:54:56.370Z,102266.19
2023-05-17T06:57:24.467Z,102285.03
2023-05-17T06:59:52.429Z,102190.50
2023-05-17T07:02:19.880Z,102293.44
2023-05-17T07:04:46.720Z,102246.06
2023-05-17T07:07:13.440Z,102278.53
2023-05-17T07:09:40.227Z,102277.59
2023-05-17T07:12:10.128Z,102287.78
2023-05-17T07:14:36.823Z,102282.44
2023-05-17T07:17:03.713Z,102243.94
2023-05-17T07:19:33.371Z,102263.50
2023-05-17T07:22:00.081Z,102267.84
2023-05-17T07:24:26.762Z,102282.22
2023-05-17T07:26:53.434Z,102255.16
2023-05-17T07:29:20.203Z,102273.06
2023-05-17T07:31:46.860Z,102296.66
2023-05-17T07:34:14.172Z,102301.97
2023-05-17T07:36:41.223Z,102308.59
2023-05-17T07:39:09.376Z,102307.72
2023-05-17T07:41:36.855Z,102307.56
2023-05-17T07:44:03.528Z,102306.19
2023-05-17T07:46:30.288Z,102310.59
2023-05-17T07:48:58.761Z,102298.09
2023-05-17T07:51:26.522Z,102331.41
2023-05-17T07:53:53.220Z,102317.81
2023-05-17T07:56:19.796Z,102322.00
2023-05-17T07:58:46.457Z,102316.31
2023-05-17T08:01:13.257Z,102284.47
2023-05-17T08:03:40.040Z,102326.63
2023-05-17T08:06:09.885Z,102318.88
2023-05-17T08:08:36.695Z,102332.84
2023-05-17T08:11:03.489Z,102336.75
2023-05-17T08:13:30.109Z,102343.13
2023-05-17T08:16:08.947Z,102342.28
2023-05-17T08:18:40.412Z,102281.28
2023-05-17T08:21:07.241Z,102339.22
2023-05-17T08:23:36.418Z,102338.47
2023-05-17T08:26:03.388Z,102307.63
2023-05-17T08:28:30.075Z,102308.31
2023-05-17T08:30:59.234Z,102252.41
2023-05-17T08:33:26.514Z,102280.22
2023-05-17T08:35:55.492Z,102361.31
2023-05-17T08:38:22.588Z,102365.00
2023-05-17T08:40:56.478Z,102363.78
2023-05-17T08:43:27.353Z,102310.44
2023-05-17T08:45:54.695Z,102359.53
2023-05-17T08:48:21.382Z,102354.50
2023-05-17T08:50:51.083Z,102363.03
2023-05-17T08:53:18.248Z,102338.91
2023-05-17T08:55:49.778Z,102361.25
2023-05-17T08:58:21.600Z,102323.09
2023-05-17T09:00:51.926Z,102302.72
2023-05-17T09:03:20.144Z,102396.66
2023-05-17T09:05:46.968Z,102384.78
2023-05-17T09:08:14.315Z,102382.69
2023-05-17T09:10:41.898Z,102388.97
2023-05-17T09:13:12.597Z,102381.97
2023-05-17T09:15:42.804Z,102359.50
2023-05-17T09:18:12.392Z,102365.31
2023-05-17T09:20:40.016Z,102369.91
2023-05-17T09:23:14.880Z,102398.81
2023-05-17T09:25:49.260Z,102369.56
2023-05-17T09:28:18.801Z,102386.81
2023-05-17T09:30:49.499Z,102332.25
2023-05-17T09:33:18.576Z,102379.69
2023-05-17T09:35:45.835Z,102395.84
2023-05-17T09:38:15.313Z,102416.38
2023-05-17T09:40:44.638Z,102371.06
2023-05-17T09:43:12.645Z,102381.00
2023-05-17T09:45:39.898Z,102414.44
2023-05-17T09:48:17.596Z,102372.91
2023-05-17T09:50:51.500Z,102406.53
2023-05-17T09:53:31.153Z,102413.47
2023-05-17T09:56:02.505Z,102405.88
2023-05-17T09:58:32.125Z,102409.13
2023-05-17T10:01:03.952Z,102382.59
2023-05-17T10:03:35.947Z,102400.22
2023-05-17T10:06:06.078Z,102345.50
2023-05-17T10:08:34.013Z,102405.00
2023-05-17T10:11:07.923Z,102402.53
2023-05-17T10:13:44.446Z,102410.19
2023-05-17T10:16:13.167Z,102410.31
2023-05-17T10:18:40.999Z,102408.28
2023-05-17T10:21:08.650Z,102409.19
2023-05-17T10:23:36.998Z,102424.41
2023-05-17T10:26:04.592Z,102397.50
2023-05-17T10:28:33.205Z,102369.50
2023-05-17T10:31:00.956Z,102404.06
2023-05-17T10:33:28.309Z,102402.47
2023-05-17T10:35:56.220Z,102404.84
2023-05-17T10:38:28.878Z,102423.75
2023-05-17T10:41:03.117Z,102424.91
2023-05-17T10:43:32.062Z,102422.16
2023-05-17T10:46:00.369Z,102418.06
2023-05-17T10:48:29.185Z,102406.22
2023-05-17T10:53:27.588Z,102416.63
2023-05-17T10:55:54.289Z,102403.84
2023-05-17T10:58:21.325Z,102389.97
2023-05-17T11:00:55.172Z,102405.75
2023-05-17T11:03:25.932Z,102410.84
2023-05-17T11:06:19.377Z,102416.13
2023-05-17T11:09:16.619Z,102421.81
2023-05-17T11:12:05.405Z,102433.00
2023-05-17T11:14:53.531Z,102435.28
2023-05-17T11:17:37.100Z,102442.91
2023-05-17T11:20:06.987Z,102415.69
2023-05-17T11:22:50.223Z,102430.66
2023-05-17T11:25:17.487Z,102433.19
2023-05-17T11:27:46.932Z,102434.25
2023-05-17T11:30:29.200Z,102422.38
2023-05-17T11:33:00.492Z,102425.97
2023-05-17T11:35:35.482Z,102426.84
2023-05-17T11:38:30.172Z,102421.03
2023-05-17T11:40:57.804Z,102302.50
2023-05-17T11:43:26.021Z,102425.00
2023-05-17T11:45:57.790Z,102421.88
2023-05-17T11:48:26.668Z,102404.44
2023-05-17T11:50:56.206Z,102406.59
2023-05-17T11:53:24.506Z,102439.97
2023-05-17T11:55:52.421Z,102445.44
2023-05-17T11:58:26.316Z,102416.38
2023-05-17T12:00:55.132Z,102421.38
2023-05-17T12:03:24.600Z,102400.88
2023-05-17T12:06:15.877Z,102418.72
2023-05-17T12:08:47.058Z,102423.19
2023-05-17T12:11:17.686Z,102380.81
2023-05-17T12:13:47.291Z,102409.38
2023-05-17T12:16:17.932Z,102401.69
2023-05-17T12:18:50.639Z,102410.84
2023-05-17T12:21:18.656Z,102413.44
2023-05-17T12:23:49.606Z,102386.47
2023-05-17T12:26:19.330Z,102392.44
2023-05-17T12:29:00.120Z,102421.69
2023-05-17T12:31:40.925Z,102421.53
2023-05-17T12:34:09.633Z,102421.94
2023-05-17T12:36:39.736Z,102424.16
2023-05-17T12:39:09.892Z,102373.56
2023-05-17T12:41:38.761Z,102433.06
2023-05-17T12:46:39.229Z,102376.47
2023-05-17T12:49:08.476Z,102352.16
2023-05-17T12:51:45.034Z,102449.22
2023-05-17T12:54:13.240Z,102426.31
2023-05-17T12:56:46.671Z,102426.41
2023-05-17T12:59:25.694Z,102358.53
2023-05-17T13:01:56.963Z,102418.75
2023-05-17T13:04:34.523Z,102430.06
2023-05-17T13:07:03.631Z,102433.44
2023-05-17T13:09:32.628Z,102412.78
2023-05-17T13:12:07.406Z,102430.28
2023-05-17T13:14:45.672Z,102328.00
2023-05-17T13:17:25.666Z,102418.41
2023-05-17T13:19:53.111Z,102453.75
2023-05-17T13:22:20.031Z,102436.34
2023-05-17T13:24:46.842Z,102441.22
2023-05-17T13:27:13.657Z,102453.72
2023-05-17T13:29:42.116Z,102306.06
2023-05-17T13:32:11.907Z,102436.09
2023-05-17T13:34:39.278Z,101816.47
2023-05-17T13:37:10.287Z,102450.63
2023-05-17T13:39:38.637Z,102408.72
2023-05-17T13:42:05.803Z,102454.00
2023-05-17T13:44:32.861Z,102454.91
2023-05-17T13:46:59.677Z,102453.09
2023-05-17T13:49:26.927Z,102456.19
2023-05-17T13:51:53.710Z,102448.22
2023-05-17T13:54:22.096Z,102405.09
2023-05-17T13:56:48.821Z,102446.72
2023-05-17T13:59:15.487Z,102438.38
2023-05-17T14:01:43.589Z,102467.50
2023-05-17T14:04:10.347Z,102407.72
2023-05-17T14:06:37.130Z,102415.44
2023-05-17T14:09:04.224Z,102472.88
2023-05-17T14:11:30.914Z,102454.56
2023-05-17T14:13:58.438Z,102472.34
2023-05-17T14:16:25.171Z,102448.22
2023-05-17T14:18:51.926Z,102467.19
2023-05-17T14:21:18.597Z,102417.25
2023-05-17T14:23:45.644Z,102424.56
2023-05-17T14:26:12.815Z,102399.59
2023-05-17T14:28:39.776Z,102478.28
2023-05-17T14:31:06.955Z,102478.91
2023-05-17T14:33:33.852Z,102473.31
2023-05-17T14:36:00.618Z,102491.31
2023-05-17T14:38:27.605Z,102494.44
2023-05-17T14:40:54.249Z,102450.88
2023-05-17T14:43:21.322Z,102497.19
2023-05-17T14:45:47.990Z,102460.22
2023-05-17T14:48:14.846Z,102473.28
2023-05-17T14:50:41.766Z,102431.03
2023-05-17T14:53:08.528Z,102482.56
2023-05-17T14:55:35.724Z,102492.13
2023-05-17T14:58:02.863Z,102421.41
2023-05-17T15:00:29.740Z,102510.06
2023-05-17T15:02:56.966Z,102454.25
2023-05-17T15:05:24.442Z,102501.09
2023-05-17T15:07:51.331Z,102508.16
2023-05-17T15:10:18.133Z,102520.03
2023-05-17T15:12:44.802Z,102514.00
2023-05-17T15:15:12.609Z,102510.47
2023-05-17T15:17:39.333Z,102500.00
2023-05-17T15:20:07.622Z,102498.84
2023-05-17T15:22:34.434Z,102490.75
2023-05-17T15:25:01.205Z,102491.50
2023-05-17T15:27:27.900Z,102450.38
2023-05-17T15:29:54.560Z,102507.31
2023-05-17T15:32:21.388Z,102468.75
2023-05-17T15:34:48.171Z,102506.56
2023-05-17T15:37:14.977Z,102495.56
2023-05-17T15:39:41.625Z,102492.00
2023-05-17T15:42:08.274Z,102508.38
2023-05-17T15:44:34.924Z,102447.84
2023-05-17T15:47:03.194Z,102511.25
2023-05-17T15:49:30.352Z,102507.72
2023-05-17T15:51:57.215Z,102511.50
2023-05-17T15:54:24.182Z,102509.16
2023-05-17T15:56:51.207Z,102509.84
2023-05-17T15:59:17.888Z,102502.13
2023-05-17T16:01:46.576Z,102513.13
2023-05-17T16:04:13.734Z,102521.66
2023-05-17T16:06:40.719Z,102473.25
2023-05-17T16:09:07.595Z,102497.91
2023-05-17T16:11:34.309Z,102529.66
2023-05-17T16:14:01.148Z,102516.81
2023-05-17T16:16:27.844Z,102472.88
2023-05-17T16:18:56.301Z,102486.94
2023-05-17T16:21:23.180Z,102537.09
2023-05-17T16:23:49.914Z,102519.28
2023-05-17T16:26:16.636Z,102539.09
2023-05-17T16:28:43.212Z,102537.31
2023-05-17T16:31:10.033Z,102551.88
2023-05-17T16:33:36.897Z,102495.22
2023-05-17T16:36:05.200Z,102548.09
2023-05-17T16:38:32.109Z,102555.28
2023-05-17T16:41:03.331Z,102523.44
2023-05-17T16:43:31.141Z,102557.63
2023-05-17T16:45:57.830Z,102559.13
2023-05-17T16:48:24.799Z,102553.03
2023-05-17T16:50:51.648Z,102498.22
2023-05-17T16:53:18.962Z,102551.84
2023-05-17T16:55:45.879Z,102541.47
2023-05-17T16:58:12.537Z,102551.31
2023-05-17T17:00:39.217Z,102519.56
2023-05-17T17:03:09.197Z,102565.22
2023-05-17T17:05:36.775Z,102524.97
2023-05-17T17:08:03.844Z,102554.78
2023-05-17T17:10:30.909Z,102563.06
2023-05-17T17:12:57.782Z,102578.50
2023-05-17T17:15:24.791Z,102576.13
2023-05-17T17:17:51.464Z,102551.75
2023-05-17T17:20:18.312Z,102526.56
2023-05-17T17:22:44.917Z,102564.72
2023-05-17T17:25:11.555Z,102573.03
2023-05-17T17:27:38.340Z,102583.56
2023-05-17T17:30:06.607Z,102449.84
2023-05-17T17:32:33.673Z,102583.63
2023-05-17T17:35:00.716Z,102559.66
2023-05-17T17:37:27.445Z,102589.22
2023-05-17T17:39:54.284Z,102583.34
2023-05-17T17:42:21.121Z,102561.13
2023-05-17T17:44:47.879Z,102567.09
2023-05-17T17:47:14.760Z,102591.06
2023-05-17T17:49:41.660Z,102598.25
2023-05-17T17:52:08.382Z,102543.63
2023-05-17T17:54:35.418Z,102562.09
2023-05-17T17:57:03.292Z,102608.03
2023-05-17T17:59:30.142Z,102597.88
2023-05-17T18:01:56.842Z,102616.06
2023-05-17T18:04:23.540Z,102611.56
2023-05-17T18:06:50.305Z,102627.13
2023-05-17T18:09:17.055Z,102622.78
2023-05-17T18:11:43.673Z,102623.72
2023-05-17T18:14:10.417Z,102614.66
2023-05-17T18:16:37.151Z,102579.59
2023-05-17T18:19:03.981Z,102616.50
2023-05-17T18:21:30.926Z,102630.31
2023-05-17T18:23:57.613Z,102635.75
2023-05-17T18:26:24.494Z,102638.00
2023-05-17T18:28:51.429Z,102642.72
2023-05-17T18:31:18.922Z,102621.38
2023-05-17T18:33:46.019Z,102643.31
2023-05-17T18:36:12.741Z,102644.94
2023-05-17T18:38:39.593Z,102604.66
2023-05-17T18:41:06.716Z,102597.59
2023-05-17T18:43:33.488Z,102614.94
2023-05-17T18:46:00.211Z,102653.34
2023-05-17T18:48:27.941Z,102577.59
2023-05-17T18:50:55.062Z,102554.94
2023-05-17T18:53:21.715Z,102598.91
2023-05-17T18:55:48.414Z,102576.28
2023-05-17T18:58:15.082Z,102656.41
2023-05-17T19:00:41.771Z,102590.59
2023-05-17T19:03:08.574Z,102656.25
2023-05-17T19:05:35.318Z,102652.88
2023-05-17T19:08:02.070Z,102655.50
2023-05-17T19:10:29.310Z,102641.47
2023-05-17T19:12:56.140Z,102650.66
2023-05-17T19:15:22.939Z,102652.81
2023-05-17T19:17:49.655Z,102639.59
2023-05-17T19:20:16.868Z,102661.19
2023-05-17T19:22:43.553Z,102605.81
2023-05-17T19:25:10.511Z,102667.94
2023-05-17T19:27:37.201Z,102619.97
2023-05-17T19:30:04.637Z,102659.94
2023-05-17T19:32:33.404Z,102604.84
2023-05-17T19:35:01.440Z,102663.59
2023-05-17T19:37:28.870Z,102673.06
2023-05-17T19:39:55.758Z,102672.91
2023-05-17T19:42:22.416Z,102648.16
2023-05-17T19:44:49.054Z,102463.53
2023-05-17T19:47:15.641Z,102668.44
2023-05-17T19:49:44.114Z,102666.53
2023-05-17T19:52:10.750Z,102668.63
2023-05-17T19:54:37.459Z,102666.28
2023-05-17T19:57:04.268Z,102666.19
2023-05-17T19:59:31.043Z,102672.81
2023-05-17T20:01:58.139Z,102658.97
2023-05-17T20:04:24.881Z,102676.81
2023-05-17T20:06:52.116Z,102647.72
2023-05-17T20:09:18.777Z,102681.75
2023-05-17T20:11:45.550Z,102581.56
2023-05-17T20:14:12.510Z,102653.91
2023-05-17T20:16:39.347Z,102678.84
2023-05-17T20:19:06.282Z,102678.13
2023-05-17T20:21:33.578Z,102667.00
2023-05-17T20:24:04.120Z,102675.88
2023-05-17T20:26:37.264Z,102675.09
2023-05-17T20:29:07.494Z,102671.25
2023-05-17T20:31:35.495Z,102681.00
2023-05-17T20:34:03.078Z,102678.75
2023-05-17T20:36:30.286Z,102665.50
2023-05-17T20:38:57.108Z,102678.81
2023-05-17T20:41:23.922Z,102677.22
2023-05-17T20:43:51.920Z,102655.06
2023-05-17T20:46:19.016Z,102680.22
2023-05-17T20:48:47.922Z,102682.66
2023-05-17T20:51:15.316Z,102669.91
2023-05-17T20:53:41.991Z,102674.44
2023-05-17T20:56:08.608Z,102689.25
2023-05-17T20:58:35.273Z,102679.47
2023-05-17T21:01:02.153Z,102690.50
2023-05-17T21:03:33.476Z,102685.91
2023-05-17T21:06:01.503Z,102678.78
2023-05-17T21:08:28.558Z,102685.94
2023-05-17T21:10:56.051Z,102686.34
2023-05-17T21:13:24.104Z,102680.19
2023-05-17T21:15:50.870Z,102684.25
2023-05-17T21:18:17.589Z,102629.00
2023-05-17T21:20:44.231Z,102684.16
2023-05-17T21:23:11.074Z,102684.94
2023-05-17T21:25:37.988Z,102686.72
2023-05-17T21:28:05.962Z,102668.41
2023-05-17T21:30:32.645Z,102688.31
2023-05-17T21:32:59.571Z,102681.28
2023-05-17T21:35:26.425Z,102664.81
2023-05-17T21:37:53.140Z,102681.47
2023-05-17T21:40:19.910Z,102684.00
2023-05-17T21:42:46.748Z,102685.53
2023-05-17T21:45:14.952Z,102623.13
2023-05-17T21:47:41.641Z,102675.66
2023-05-17T21:50:09.378Z,102673.81
2023-05-17T21:52:36.912Z,102655.28
2023-05-17T21:55:03.967Z,102645.56
2023-05-17T21:57:30.753Z,102682.91
2023-05-17T21:59:57.391Z,102701.06
2023-05-17T22:02:24.450Z,102658.94
2023-05-17T22:04:51.295Z,102697.03
2023-05-17T22:07:17.927Z,102689.22
2023-05-17T22:09:46.787Z,102673.81
2023-05-17T22:12:13.704Z,102698.38
2023-05-17T22:14:44.613Z,102702.41
2023-05-17T22:17:11.289Z,102676.00
2023-05-17T22:19:40.932Z,102700.50
2023-05-17T22:22:08.498Z,102659.44
2023-05-17T22:24:35.711Z,102712.31
2023-05-17T22:27:03.557Z,102699.78
2023-05-17T22:29:30.218Z,102639.41
2023-05-17T22:31:56.976Z,102641.56
2023-05-17T22:34:23.655Z,102707.66
2023-05-17T22:36:50.441Z,102727.94
2023-05-17T22:39:17.194Z,102690.56
2023-05-17T22:41:44.037Z,102718.25
2023-05-17T22:44:10.923Z,102607.47
2023-05-17T22:46:38.754Z,102719.34
2023-05-17T22:49:05.539Z,102714.94
2023-05-17T22:51:35.471Z,102724.88
2023-05-17T22:54:03.472Z,102709.16
2023-05-17T22:56:30.479Z,102717.78
2023-05-17T22:58:58.400Z,102720.31
2023-05-17T23:01:25.381Z,102710.03
2023-05-17T23:03:52.139Z,102725.69
2023-05-17T23:06:22.201Z,102702.16
2023-05-17T23:08:49.918Z,102732.50
2023-05-17T23:11:16.594Z,102725.41
2023-05-17T23:13:43.171Z,102734.78
2023-05-17T23:16:10.122Z,102726.56
2023-05-17T23:18:38.225Z,102727.94
2023-05-17T23:21:05.004Z,102727.63
2023-05-17T23:23:31.734Z,102733.78
2023-05-17T23:25:58.988Z,102679.09
2023-05-17T23:28:25.782Z,102713.97
2023-05-17T23:30:54.657Z,102727.03
2023-05-17T23:33:21.375Z,102714.78
2023-05-17T23:35:48.142Z,102736.84
2023-05-17T23:38:14.931Z,102721.78
2023-05-17T23:40:41.930Z,102740.97
2023-05-17T23:43:10.226Z,102730.69
2023-05-17T23:45:37.302Z,102740.72
2023-05-17T23:48:04.289Z,102653.69
2023-05-17T23:50:31.092Z,102747.56
2023-05-17T23:52:57.776Z,102741.19
2023-05-17T23:55:24.404Z,102725.94
2023-05-17T23:57:51.857Z,102741.69
